Time;durP1;ratioP1;P1;durP2;ratioP2;P2;SDS_P1;SDS_P2;PMS_P1;PMS_P2;Temp;Humidity;BMP_temperature;BMP_pressure;BME280_temperature;BME280_humidity;BME280_pressure;Samples;Min_cycle;Max_cycle;Signal;HPM_P1;HPM_P2
2023/06/06 00:00:29;;;;;;;9.70;5.03;;;18.50;77.10;;;;;;5069076;28;20271;-80
2023/06/06 00:03:21;;;;;;;9.75;5.10;;;18.50;77.10;;;;;;5064220;28;20278;-78
2023/06/06 00:06:14;;;;;;;11.85;5.20;;;18.50;78.50;;;;;;5067358;28;20720;-80
2023/06/06 00:09:04;;;;;;;10.20;5.53;;;18.40;77.80;;;;;;5062384;28;20781;-80
2023/06/06 00:11:54;;;;;;;10.23;5.70;;;18.40;79.20;;;;;;5047926;28;20382;-80
2023/06/06 00:14:44;;;;;;;11.98;5.47;;;18.50;78.80;;;;;;5051455;28;20224;-80
2023/06/06 00:17:34;;;;;;;9.10;5.47;;;18.40;79.00;;;;;;5081241;28;20272;-80
2023/06/06 00:20:23;;;;;;;14.13;5.70;;;18.40;79.10;;;;;;5074872;28;20235;-80
2023/06/06 00:23:12;;;;;;;10.07;5.47;;;18.30;78.30;;;;;;5072535;28;20319;-80
2023/06/06 00:26:01;;;;;;;9.95;5.90;;;18.40;78.30;;;;;;5076400;28;20239;-80
2023/06/06 00:28:50;;;;;;;10.07;5.72;;;18.30;77.90;;;;;;5052157;28;20275;-80
2023/06/06 00:31:40;;;;;;;11.20;6.15;;;18.10;77.20;;;;;;5063540;28;20292;-79
2023/06/06 00:34:29;;;;;;;9.18;5.40;;;18.20;78.20;;;;;;5068872;28;20227;-79
2023/06/06 00:37:17;;;;;;;12.88;5.70;;;18.10;77.30;;;;;;5052320;28;20307;-80
2023/06/06 00:40:09;;;;;;;12.13;6.03;;;18.10;77.40;;;;;;5061195;28;20215;-80
2023/06/06 00:42:58;;;;;;;15.88;6.38;;;18.10;77.80;;;;;;5079803;28;20722;-79
2023/06/06 00:45:47;;;;;;;10.35;5.22;;;18.10;78.00;;;;;;5075485;28;20228;-80
2023/06/06 00:48:38;;;;;;;9.20;5.43;;;18.00;76.20;;;;;;5046111;28;20232;-79
2023/06/06 00:51:27;;;;;;;11.98;5.80;;;18.00;77.50;;;;;;5062260;28;20694;-79
2023/06/06 00:54:18;;;;;;;14.15;5.90;;;17.90;75.80;;;;;;5054012;28;20246;-79
2023/06/06 00:57:09;;;;;;;10.25;5.57;;;17.90;76.90;;;;;;5042842;28;20271;-79
2023/06/06 00:59:59;;;;;;;11.73;5.20;;;17.70;76.40;;;;;;5066034;28;20224;-80
2023/06/06 01:02:48;;;;;;;9.30;5.72;;;17.70;76.80;;;;;;5048133;28;20239;-79
2023/06/06 01:05:39;;;;;;;9.05;5.40;;;17.80;76.70;;;;;;5054202;28;20271;-78
2023/06/06 01:08:28;;;;;;;9.95;5.47;;;17.90;78.20;;;;;;5058401;28;20299;-79
2023/06/06 01:11:28;;;;;;;9.50;5.25;;;17.90;77.00;;;;;;5052870;28;20779;-79
2023/06/06 01:14:24;;;;;;;8.32;5.18;;;17.80;77.20;;;;;;5060839;28;20792;-79
2023/06/06 01:17:18;;;;;;;9.48;5.63;;;17.80;77.00;;;;;;5047193;28;20693;-80
2023/06/06 01:20:09;;;;;;;10.18;5.03;;;17.70;76.70;;;;;;5079285;28;20314;-79
2023/06/06 01:23:00;;;;;;;12.70;5.80;;;17.70;77.10;;;;;;5069489;28;20223;-80
2023/06/06 01:25:49;;;;;;;10.73;4.32;;;17.70;75.30;;;;;;5069997;28;20314;-79
2023/06/06 01:28:39;;;;;;;9.50;4.72;;;17.70;74.10;;;;;;5055618;28;20228;-79
2023/06/06 01:31:33;;;;;;;8.43;4.82;;;17.70;73.60;;;;;;5075463;28;20647;-80
2023/06/06 01:34:29;;;;;;;9.95;5.13;;;17.70;73.00;;;;;;5072400;28;20306;-80
2023/06/06 01:37:26;;;;;;;8.52;4.32;;;17.50;73.00;;;;;;5059177;28;20228;-80
2023/06/06 01:40:19;;;;;;;6.38;4.32;;;17.30;73.60;;;;;;5056585;28;20220;-81
2023/06/06 01:43:09;;;;;;;9.82;4.95;;;17.30;73.40;;;;;;5070909;28;20830;-80
2023/06/06 01:45:59;;;;;;;9.40;4.75;;;17.30;73.50;;;;;;5036424;28;20231;-80
2023/06/06 01:48:48;;;;;;;10.80;4.82;;;17.20;73.90;;;;;;5054944;28;20401;-80
2023/06/06 01:51:37;;;;;;;6.28;4.50;;;17.30;74.10;;;;;;5068081;28;20223;-81
2023/06/06 01:54:26;;;;;;;10.40;4.85;;;17.30;74.10;;;;;;5041824;28;20224;-80
2023/06/06 01:57:16;;;;;;;7.00;4.55;;;17.20;74.90;;;;;;5054534;28;20211;-79
2023/06/06 02:00:08;;;;;;;5.68;4.38;;;17.10;74.70;;;;;;5048494;28;20224;-80
2023/06/06 02:03:03;;;;;;;7.90;4.88;;;17.10;74.70;;;;;;5067140;28;20227;-79
2023/06/06 02:05:51;;;;;;;6.65;4.70;;;17.10;75.10;;;;;;5051722;28;20212;-77
2023/06/06 02:08:41;;;;;;;8.25;4.00;;;17.10;76.00;;;;;;5066452;28;20228;-80
2023/06/06 02:11:33;;;;;;;7.38;4.75;;;17.10;75.70;;;;;;5081304;28;20710;-79
2023/06/06 02:14:23;;;;;;;7.00;4.47;;;17.00;74.60;;;;;;5066740;28;20980;-80
2023/06/06 02:17:12;;;;;;;8.25;4.90;;;17.10;74.50;;;;;;5058207;28;20281;-79
2023/06/06 02:20:01;;;;;;;7.70;4.43;;;16.90;73.90;;;;;;5063261;28;20618;-80
2023/06/06 02:22:49;;;;;;;9.45;4.65;;;17.00;74.00;;;;;;5077925;28;20223;-80
2023/06/06 02:25:38;;;;;;;7.55;4.53;;;17.00;73.70;;;;;;5075979;28;20866;-80
2023/06/06 02:28:28;;;;;;;6.10;4.40;;;17.10;73.80;;;;;;5083556;28;20226;-79
2023/06/06 02:31:21;;;;;;;7.88;3.95;;;17.00;73.10;;;;;;5076504;28;20219;-80
2023/06/06 02:34:10;;;;;;;4.82;3.90;;;17.00;73.70;;;;;;5070140;28;20640;-79
2023/06/06 02:37:02;;;;;;;6.43;4.32;;;17.10;73.60;;;;;;5059042;28;20224;-79
2023/06/06 02:39:50;;;;;;;7.35;4.00;;;17.10;73.30;;;;;;5072316;28;20580;-79
2023/06/06 02:42:40;;;;;;;5.28;3.63;;;17.00;72.50;;;;;;5076355;28;20243;-80
2023/06/06 02:45:30;;;;;;;5.43;3.63;;;16.90;73.20;;;;;;5058908;28;20231;-78
2023/06/06 02:48:23;;;;;;;5.15;3.65;;;16.90;72.90;;;;;;5062116;28;20232;-80
2023/06/06 02:51:12;;;;;;;7.50;4.25;;;17.10;74.30;;;;;;5059679;28;20294;-80
2023/06/06 02:54:00;;;;;;;7.63;4.00;;;17.10;73.20;;;;;;5088589;28;20379;-80
2023/06/06 02:56:49;;;;;;;6.97;4.18;;;17.10;73.40;;;;;;5074402;28;20223;-79
2023/06/06 02:59:38;;;;;;;8.05;4.28;;;17.20;73.30;;;;;;5073242;28;20226;-79
2023/06/06 03:02:27;;;;;;;7.85;3.75;;;17.30;74.50;;;;;;5061516;28;20956;-79
2023/06/06 03:05:18;;;;;;;9.90;4.55;;;17.10;72.90;;;;;;5064737;28;20266;-80
2023/06/06 03:08:07;;;;;;;7.00;4.57;;;16.90;73.60;;;;;;5044781;28;20311;-80
2023/06/06 03:10:56;;;;;;;8.85;4.10;;;16.90;73.60;;;;;;5073128;28;20306;-80
2023/06/06 03:13:46;;;;;;;8.80;4.30;;;17.00;74.20;;;;;;5074621;28;20256;-78
2023/06/06 03:16:36;;;;;;;5.55;4.10;;;17.00;73.60;;;;;;5064327;28;20696;-79
2023/06/06 03:19:26;;;;;;;7.78;4.15;;;17.00;73.70;;;;;;5076140;28;20906;-79
2023/06/06 03:22:18;;;;;;;8.63;4.35;;;17.20;73.60;;;;;;5066863;28;20226;-79
2023/06/06 03:25:08;;;;;;;6.47;3.95;;;17.30;73.80;;;;;;5064728;28;20930;-79
2023/06/06 03:27:57;;;;;;;8.68;4.10;;;17.40;74.00;;;;;;5069184;28;20399;-80
2023/06/06 03:30:46;;;;;;;5.90;4.30;;;17.40;74.30;;;;;;5074627;28;20373;-79
2023/06/06 03:33:36;;;;;;;5.82;4.07;;;17.40;73.80;;;;;;5050246;28;21014;-79
2023/06/06 03:36:26;;;;;;;7.30;4.63;;;17.40;74.00;;;;;;5057774;28;20220;-78
2023/06/06 03:39:18;;;;;;;7.22;4.18;;;17.60;74.80;;;;;;5066210;28;20288;-80
2023/06/06 03:42:08;;;;;;;6.80;4.35;;;17.50;73.20;;;;;;5073065;28;20706;-78
2023/06/06 03:44:57;;;;;;;12.25;4.25;;;17.60;74.10;;;;;;5068076;28;20395;-80
2023/06/06 03:47:47;;;;;;;7.00;4.47;;;17.70;74.00;;;;;;5061664;28;20235;-80
2023/06/06 03:50:36;;;;;;;11.18;4.47;;;17.70;73.60;;;;;;5065174;28;20215;-80
2023/06/06 03:53:24;;;;;;;9.68;4.22;;;17.70;73.60;;;;;;5088779;28;20725;-80
2023/06/06 03:56:15;;;;;;;13.77;4.75;;;17.70;74.00;;;;;;5064148;28;20240;-80
2023/06/06 03:59:06;;;;;;;7.95;4.13;;;17.60;74.10;;;;;;5065116;28;20603;-79
2023/06/06 04:01:55;;;;;;;11.38;4.15;;;17.60;74.10;;;;;;5059586;28;20211;-80
2023/06/06 04:04:50;;;;;;;8.95;4.47;;;17.40;73.60;;;;;;5065663;28;20224;-79
2023/06/06 04:07:39;;;;;;;9.05;4.55;;;17.60;74.80;;;;;;5063062;28;20219;-80
2023/06/06 04:10:28;;;;;;;9.70;4.38;;;17.50;73.70;;;;;;5085559;28;20227;-79
2023/06/06 04:13:18;;;;;;;7.68;4.30;;;17.80;74.60;;;;;;5071662;28;20635;-79
2023/06/06 04:16:07;;;;;;;21.40;5.10;;;17.70;75.10;;;;;;5083623;28;20625;-78
2023/06/06 04:18:58;;;;;;;8.18;4.40;;;17.90;75.00;;;;;;5050460;28;20217;-81
2023/06/06 04:21:48;;;;;;;8.02;3.90;;;17.70;74.20;;;;;;5065163;28;20296;-80
2023/06/06 04:24:37;;;;;;;6.75;4.28;;;18.00;74.80;;;;;;5048657;28;20227;-80
2023/06/06 04:27:28;;;;;;;8.32;4.78;;;18.00;73.90;;;;;;5076533;28;20257;-80
2023/06/06 04:30:22;;;;;;;6.50;4.07;;;18.00;73.80;;;;;;5078342;28;20242;-81
2023/06/06 04:33:16;;;;;;;5.63;3.65;;;18.00;74.20;;;;;;5069463;28;20253;-80
2023/06/06 04:36:06;;;;;;;8.82;4.18;;;18.10;73.50;;;;;;5041106;28;20881;-80
2023/06/06 04:39:00;;;;;;;6.53;4.00;;;18.30;73.30;;;;;;5049757;28;20217;-80
2023/06/06 04:41:50;;;;;;;10.73;4.28;;;18.30;72.90;;;;;;5072958;28;20216;-78
2023/06/06 04:44:42;;;;;;;8.20;4.13;;;18.40;72.40;;;;;;5079637;28;20708;-80
2023/06/06 04:47:33;;;;;;;7.57;4.15;;;18.60;72.30;;;;;;5067164;28;20365;-79
2023/06/06 04:50:23;;;;;;;10.63;4.15;;;18.60;72.10;;;;;;5066798;28;20255;-77
2023/06/06 04:53:11;;;;;;;7.78;3.95;;;18.70;71.60;;;;;;5062788;28;20780;-80
2023/06/06 04:56:03;;;;;;;13.70;4.25;;;18.70;70.80;;;;;;5068173;28;20365;-79
2023/06/06 04:58:53;;;;;;;6.10;3.80;;;18.60;71.80;;;;;;5086975;28;20318;-79
2023/06/06 05:01:46;;;;;;;9.57;3.47;;;18.60;70.90;;;;;;5067204;28;20224;-80
2023/06/06 05:04:37;;;;;;;6.35;4.05;;;18.80;70.80;;;;;;5076842;28;20224;-79
2023/06/06 05:07:25;;;;;;;6.60;4.00;;;18.90;70.80;;;;;;5075190;28;20219;-79
2023/06/06 05:10:15;;;;;;;5.78;3.75;;;19.10;70.90;;;;;;5065945;28;20211;-76
2023/06/06 05:13:04;;;;;;;7.93;3.83;;;19.30;71.00;;;;;;5080207;28;20231;-80
2023/06/06 05:15:53;;;;;;;7.65;3.58;;;19.50;70.70;;;;;;5077111;28;20407;-80
2023/06/06 05:18:41;;;;;;;8.00;3.60;;;19.60;69.20;;;;;;5080411;28;20300;-80
2023/06/06 05:21:33;;;;;;;7.88;3.40;;;19.40;69.30;;;;;;5049176;28;20231;-80
2023/06/06 05:24:21;;;;;;;7.63;3.42;;;19.50;69.50;;;;;;5056297;28;20220;-80
2023/06/06 05:27:10;;;;;;;12.65;3.45;;;19.70;69.60;;;;;;5081145;28;20309;-80
2023/06/06 05:30:01;;;;;;;9.15;3.40;;;19.80;68.40;;;;;;5088035;28;20218;-80
2023/06/06 05:32:51;;;;;;;8.25;3.25;;;20.10;69.10;;;;;;5086087;28;20361;-80
2023/06/06 05:36:02;;;;;;;11.85;3.28;;;20.50;67.10;;;;;;5082785;28;20365;-80
2023/06/06 05:38:52;;;;;;;8.10;3.72;;;20.70;67.60;;;;;;5084108;28;20970;-80
2023/06/06 05:41:41;;;;;;;7.22;3.42;;;20.30;66.60;;;;;;5067132;28;20299;-80
2023/06/06 05:44:30;;;;;;;11.70;3.35;;;20.10;67.50;;;;;;5061445;28;20879;-80
2023/06/06 05:47:18;;;;;;;9.43;3.42;;;20.20;67.60;;;;;;5067635;28;20302;-80
2023/06/06 05:50:08;;;;;;;10.43;3.55;;;20.40;67.40;;;;;;5074877;28;20329;-79
2023/06/06 05:52:57;;;;;;;6.95;3.47;;;20.50;68.80;;;;;;5085864;28;20300;-80
2023/06/06 05:55:48;;;;;;;9.77;3.50;;;20.60;67.10;;;;;;5072372;28;20274;-81
2023/06/06 05:58:36;;;;;;;9.23;3.13;;;20.70;68.20;;;;;;5051929;28;20310;-80
2023/06/06 06:01:30;;;;;;;7.95;3.28;;;20.70;67.00;;;;;;5061790;28;20243;-80
2023/06/06 06:04:19;;;;;;;9.40;3.50;;;20.80;67.50;;;;;;5076029;28;20219;-80
2023/06/06 06:07:08;;;;;;;10.02;3.53;;;20.90;67.20;;;;;;5072971;28;20418;-80
2023/06/06 06:09:57;;;;;;;14.45;3.72;;;21.00;67.10;;;;;;5065944;28;20225;-79
2023/06/06 06:12:47;;;;;;;8.73;3.13;;;21.20;65.90;;;;;;5083643;28;20234;-79
2023/06/06 06:15:37;;;;;;;5.35;3.08;;;21.20;65.80;;;;;;5073389;28;20323;-80
2023/06/06 06:18:26;;;;;;;7.22;3.35;;;21.20;65.80;;;;;;5066152;28;20254;-80
2023/06/06 06:21:15;;;;;;;8.60;3.10;;;21.40;65.70;;;;;;5065575;28;20223;-80
2023/06/06 06:24:07;;;;;;;4.90;3.05;;;21.60;65.50;;;;;;5061624;28;20545;-80
2023/06/06 06:26:56;;;;;;;7.88;2.70;;;21.70;65.20;;;;;;5080245;28;20635;-81
2023/06/06 06:29:47;;;;;;;8.18;2.83;;;21.80;65.00;;;;;;5051318;28;20228;-79
2023/06/06 06:32:37;;;;;;;10.50;2.78;;;22.00;64.00;;;;;;5070097;28;20429;-80
2023/06/06 06:35:29;;;;;;;7.53;3.00;;;21.90;63.40;;;;;;5044068;28;20342;-80
2023/06/06 06:38:17;;;;;;;12.30;3.05;;;22.00;63.70;;;;;;5065374;28;20271;-80
2023/06/06 06:41:06;;;;;;;6.60;2.72;;;22.10;65.50;;;;;;5072849;28;20480;-81
2023/06/06 06:43:55;;;;;;;9.02;2.97;;;22.50;63.90;;;;;;5088861;28;20683;-79
2023/06/06 06:46:45;;;;;;;4.60;2.90;;;23.10;62.30;;;;;;5067285;28;20306;-80
2023/06/06 06:49:35;;;;;;;8.07;3.22;;;23.40;62.50;;;;;;5063886;28;20296;-80
2023/06/06 06:52:25;;;;;;;13.38;2.72;;;23.40;60.70;;;;;;5071964;28;20308;-80
2023/06/06 06:55:13;;;;;;;7.10;2.65;;;23.10;61.60;;;;;;5066838;28;20273;-81
2023/06/06 06:58:03;;;;;;;7.32;2.42;;;23.10;60.80;;;;;;5066312;28;20228;-81
2023/06/06 07:00:52;;;;;;;11.80;3.10;;;23.30;62.00;;;;;;5058258;28;20663;-80
2023/06/06 07:03:44;;;;;;;4.60;2.70;;;23.40;60.40;;;;;;5060826;28;20243;-81
2023/06/06 07:06:33;;;;;;;6.78;2.63;;;23.60;61.50;;;;;;5065661;28;20493;-81
2023/06/06 07:09:22;;;;;;;11.20;2.67;;;23.90;61.00;;;;;;5055022;28;20243;-81
2023/06/06 07:12:12;;;;;;;5.88;2.65;;;24.50;60.70;;;;;;5054723;28;20224;-81
2023/06/06 07:15:01;;;;;;;6.18;2.58;;;24.50;59.00;;;;;;5058929;28;20227;-81
2023/06/06 07:17:50;;;;;;;8.95;2.38;;;24.60;57.90;;;;;;5052872;28;20224;-81
2023/06/06 07:20:41;;;;;;;9.32;2.33;;;24.70;57.30;;;;;;5061853;28;20232;-81
2023/06/06 07:23:31;;;;;;;9.10;2.92;;;25.10;56.00;;;;;;5062059;28;20311;-82
2023/06/06 07:26:20;;;;;;;9.98;2.67;;;25.60;57.80;;;;;;5061241;28;20220;-81
2023/06/06 07:29:09;;;;;;;3.08;2.20;;;26.10;57.60;;;;;;5062164;28;20471;-81
2023/06/06 07:31:57;;;;;;;3.63;2.40;;;26.50;54.50;;;;;;5061842;28;20224;-81
2023/06/06 07:34:46;;;;;;;5.88;2.55;;;26.50;53.00;;;;;;5052818;28;20783;-81
2023/06/06 07:37:37;;;;;;;10.73;2.42;;;27.00;54.80;;;;;;5057624;28;20715;-81
2023/06/06 07:40:26;;;;;;;7.70;2.30;;;27.40;52.70;;;;;;5040085;28;20220;-81
2023/06/06 07:43:15;;;;;;;8.68;2.58;;;27.40;51.50;;;;;;5073923;28;20231;-82
2023/06/06 07:46:03;;;;;;;7.07;2.20;;;27.60;51.60;;;;;;5045976;28;20338;-83
2023/06/06 07:48:52;;;;;;;9.40;2.40;;;28.00;52.40;;;;;;5043941;28;20335;-82
2023/06/06 07:51:41;;;;;;;8.00;2.45;;;28.30;50.80;;;;;;5061872;28;20228;-82
2023/06/06 07:54:31;;;;;;;6.90;2.33;;;28.40;50.50;;;;;;5068961;28;20258;-83
2023/06/06 07:57:20;;;;;;;5.78;2.28;;;28.70;49.60;;;;;;5076541;28;20220;-78
2023/06/06 08:00:10;;;;;;;10.98;2.30;;;29.20;49.80;;;;;;5088196;28;20688;-81
2023/06/06 08:02:59;;;;;;;5.68;2.20;;;29.20;49.70;;;;;;5064714;28;20610;-81
2023/06/06 08:05:48;;;;;;;6.80;2.10;;;29.50;48.00;;;;;;5058882;28;20224;-82
2023/06/06 08:08:41;;;;;;;5.00;2.30;;;28.90;49.90;;;;;;5078978;28;20228;-81
2023/06/06 08:11:32;;;;;;;5.32;2.50;;;28.90;49.00;;;;;;5070116;28;20223;-82
2023/06/06 08:14:21;;;;;;;7.80;2.03;;;29.60;50.50;;;;;;5086162;28;20211;-81
2023/06/06 08:17:10;;;;;;;6.13;2.47;;;30.20;47.60;;;;;;5086810;28;20571;-80
2023/06/06 08:19:58;;;;;;;7.35;2.30;;;29.30;47.30;;;;;;5077520;28;20634;-81
2023/06/06 08:22:51;;;;;;;6.90;2.00;;;29.90;49.10;;;;;;5062781;28;20216;-80
2023/06/06 08:25:40;;;;;;;6.65;1.90;;;30.10;47.00;;;;;;5066882;28;20343;-81
2023/06/06 08:28:31;;;;;;;3.72;2.30;;;30.00;49.10;;;;;;5068493;28;20655;-81
2023/06/06 08:31:20;;;;;;;5.05;2.03;;;29.90;47.60;;;;;;5065693;28;20223;-82
2023/06/06 08:34:09;;;;;;;8.82;2.15;;;29.60;46.30;;;;;;5074074;28;20701;-82
2023/06/06 08:36:58;;;;;;;5.53;2.03;;;29.50;47.00;;;;;;5069211;28;20230;-82
2023/06/06 08:39:47;;;;;;;6.35;1.83;;;29.60;46.60;;;;;;5050332;28;20729;-81
2023/06/06 08:42:41;;;;;;;6.60;2.25;;;30.00;47.00;;;;;;5068855;28;20291;-82
2023/06/06 08:45:33;;;;;;;5.40;2.10;;;29.90;46.10;;;;;;5069815;28;20279;-81
2023/06/06 08:48:24;;;;;;;6.88;1.70;;;30.00;46.00;;;;;;5077345;28;20625;-82
2023/06/06 08:51:13;;;;;;;3.45;2.00;;;29.90;45.90;;;;;;5059729;28;20699;-81
2023/06/06 08:54:03;;;;;;;2.00;1.90;;;30.10;45.60;;;;;;5074309;28;20215;-82
2023/06/06 08:56:53;;;;;;;4.50;2.05;;;30.90;46.60;;;;;;5076969;28;20249;-82
2023/06/06 08:59:42;;;;;;;2.83;2.00;;;30.80;45.60;;;;;;5071915;28;20231;-81
2023/06/06 09:02:37;;;;;;;6.65;2.38;;;31.30;47.20;;;;;;5077050;28;20232;-83
2023/06/06 09:05:26;;;;;;;2.63;2.03;;;31.40;45.90;;;;;;5051990;28;20662;-83
2023/06/06 09:08:15;;;;;;;4.47;2.08;;;31.40;45.10;;;;;;5057249;28;20220;-82
2023/06/06 09:11:03;;;;;;;2.58;2.28;;;31.60;45.30;;;;;;5051527;28;20509;-84
2023/06/06 09:13:52;;;;;;;3.47;1.90;;;31.70;46.60;;;;;;5059855;28;20231;-84
2023/06/06 09:16:42;;;;;;;5.30;2.15;;;32.50;45.70;;;;;;5067500;28;20361;-83
2023/06/06 09:19:35;;;;;;;5.68;2.30;;;31.60;43.60;;;;;;5074287;28;20223;-83
2023/06/06 09:22:23;;;;;;;2.60;2.10;;;31.10;45.30;;;;;;5084755;28;20219;-83
2023/06/06 09:25:20;;;;;;;3.35;2.35;;;31.90;44.90;;;;;;5071532;28;20337;-82
2023/06/06 09:28:08;;;;;;;5.68;2.08;;;32.00;44.80;;;;;;5041088;28;20216;-83
2023/06/06 09:30:57;;;;;;;4.90;2.13;;;32.10;43.70;;;;;;5054767;28;20227;-83
2023/06/06 09:33:46;;;;;;;3.90;2.17;;;32.30;42.50;;;;;;5069477;28;20285;-84
2023/06/06 09:36:41;;;;;;;5.38;2.38;;;32.60;43.40;;;;;;5085083;28;20230;-84
2023/06/06 09:39:30;;;;;;;9.77;2.40;;;33.10;44.00;;;;;;5063145;28;20381;-84
2023/06/06 09:42:20;;;;;;;3.88;2.20;;;33.80;42.10;;;;;;5078829;28;20263;-85
2023/06/06 09:45:14;;;;;;;3.42;2.15;;;34.40;43.30;;;;;;5054425;28;20337;-84
2023/06/06 09:48:03;;;;;;;4.68;2.30;;;34.10;41.80;;;;;;5064010;28;20767;-84
2023/06/06 09:50:52;;;;;;;3.78;2.53;;;35.50;41.00;;;;;;5077483;28;20218;-84
2023/06/06 09:53:50;;;;;;;4.30;2.10;;;36.40;41.30;;;;;;5066051;28;20226;-83
2023/06/06 09:56:42;;;;;;;7.50;2.65;;;36.80;40.50;;;;;;5076305;28;20231;-85
2023/06/06 09:59:32;;;;;;;4.63;2.60;;;37.80;39.50;;;;;;5075998;28;20249;-84
2023/06/06 10:02:23;;;;;;;3.25;2.35;;;37.60;39.10;;;;;;5084071;28;20746;-81
2023/06/06 10:05:17;;;;;;;3.83;2.17;;;38.90;39.50;;;;;;5049526;28;20230;-83
2023/06/06 10:08:09;;;;;;;6.00;2.47;;;39.20;36.50;;;;;;5067680;28;20226;-83
2023/06/06 10:11:00;;;;;;;2.65;2.30;;;39.00;37.30;;;;;;5072930;28;20265;-84
2023/06/06 10:13:50;;;;;;;3.83;2.30;;;39.20;36.80;;;;;;5083124;28;20756;-83
2023/06/06 10:16:39;;;;;;;4.13;2.40;;;39.50;36.10;;;;;;5079253;28;20886;-83
2023/06/06 10:19:29;;;;;;;4.90;2.30;;;40.30;37.00;;;;;;5063881;28;20255;-82
2023/06/06 10:22:18;;;;;;;6.20;2.20;;;38.60;36.60;;;;;;5077313;28;20234;-84
2023/06/06 10:25:11;;;;;;;6.20;2.35;;;40.40;38.10;;;;;;5070733;28;20227;-83
2023/06/06 10:28:09;;;;;;;5.15;2.17;;;41.40;35.60;;;;;;5076995;28;20234;-83
2023/06/06 10:31:05;;;;;;;4.03;2.00;;;42.70;36.10;;;;;;5048903;28;20744;-83
2023/06/06 10:33:56;;;;;;;4.63;2.28;;;41.20;34.50;;;;;;5060562;28;20208;-84
2023/06/06 10:36:45;;;;;;;4.85;2.10;;;42.70;33.50;;;;;;5073119;28;20226;-83
2023/06/06 10:39:38;;;;;;;3.08;2.03;;;43.70;35.60;;;;;;5060420;28;20234;-83
2023/06/06 10:42:36;;;;;;;3.42;2.00;;;44.50;34.30;;;;;;5069521;28;20912;-83
2023/06/06 10:45:46;;;;;;;3.40;1.73;;;44.30;33.90;;;;;;5076130;28;20262;-84
2023/06/06 10:48:38;;;;;;;3.38;2.20;;;45.10;33.60;;;;;;5049356;28;20868;-83
2023/06/06 10:51:31;;;;;;;4.65;2.10;;;43.40;32.70;;;;;;5066824;28;20231;-83
2023/06/06 10:54:22;;;;;;;2.75;2.20;;;43.10;33.30;;;;;;5089468;28;20227;-84
2023/06/06 10:57:16;;;;;;;3.33;1.67;;;43.30;33.50;;;;;;5070354;28;20207;-83
2023/06/06 11:00:10;;;;;;;6.05;2.10;;;44.60;33.30;;;;;;5072171;28;20311;-83
2023/06/06 11:03:05;;;;;;;2.53;2.00;;;44.10;32.40;;;;;;5071245;28;20218;-83
2023/06/06 11:06:12;;;;;;;4.10;2.25;;;44.70;32.40;;;;;;5082641;28;20218;-83
2023/06/06 11:09:18;;;;;;;6.10;2.10;;;45.80;32.60;;;;;;5064617;28;20231;-83
2023/06/06 11:12:33;;;;;;;3.72;2.10;;;46.70;30.80;;;;;;5079085;28;20214;-84
2023/06/06 11:15:31;;;;;;;4.03;2.17;;;46.10;31.70;;;;;;5089885;28;20289;-84
2023/06/06 11:18:37;;;;;;;3.72;1.90;;;42.00;32.10;;;;;;5056783;28;20218;-83
2023/06/06 11:21:26;;;;;;;2.17;1.98;;;41.80;31.70;;;;;;5077171;28;20227;-84
2023/06/06 11:24:16;;;;;;;5.47;2.42;;;40.30;34.10;;;;;;5062699;28;20226;-83
2023/06/06 11:27:06;;;;;;;4.07;2.20;;;43.50;33.60;;;;;;5078889;28;20228;-84
2023/06/06 11:29:56;;;;;;;6.60;2.28;;;44.90;32.40;;;;;;5057488;28;20212;-83
2023/06/06 11:32:46;;;;;;;10.70;2.58;;;45.90;32.50;;;;;;5079173;28;20705;-85
2023/06/06 11:35:39;;;;;;;4.00;2.10;;;45.70;32.80;;;;;;5068123;28;20795;-84
2023/06/06 11:38:28;;;;;;;10.32;2.53;;;46.90;32.30;;;;;;5062328;28;20260;-84
2023/06/06 11:41:17;;;;;;;9.27;2.88;;;48.10;30.80;;;;;;5059399;28;20220;-84
2023/06/06 11:44:06;;;;;;;11.05;2.50;;;47.90;30.60;;;;;;5069368;28;20224;-85
2023/06/06 11:46:55;;;;;;;6.03;2.35;;;47.90;31.10;;;;;;5067303;28;20736;-84
2023/06/06 11:49:45;;;;;;;3.92;2.10;;;48.30;30.40;;;;;;5066287;28;20215;-84
2023/06/06 11:52:45;;;;;;;5.88;2.75;;;47.90;30.00;;;;;;5062482;28;20246;-86
2023/06/06 11:55:37;;;;;;;4.53;2.30;;;49.00;30.80;;;;;;5067273;28;20240;-86
2023/06/06 11:58:29;;;;;;;5.78;2.30;;;50.80;30.20;;;;;;5066522;28;20265;-85
2023/06/06 12:01:18;;;;;;;7.75;2.30;;;47.90;29.10;;;;;;5086707;28;20218;-85
2023/06/06 12:04:07;;;;;;;8.07;2.20;;;49.10;30.50;;;;;;5083149;28;20274;-85
2023/06/06 12:06:58;;;;;;;4.22;2.00;;;48.90;29.40;;;;;;5065089;28;20226;-85
2023/06/06 12:09:58;;;;;;;6.53;1.98;;;45.50;29.40;;;;;;5079295;28;20222;-84
2023/06/06 12:12:48;;;;;;;4.20;2.15;;;45.20;29.10;;;;;;5069272;28;20698;-84
2023/06/06 12:15:46;;;;;;;4.25;1.95;;;46.20;29.60;;;;;;5056949;28;20301;-85
2023/06/06 12:18:35;;;;;;;2.10;1.90;;;45.20;29.70;;;;;;5053109;28;20310;-84
2023/06/06 12:21:24;;;;;;;4.20;1.90;;;48.50;29.80;;;;;;5090354;28;20294;-86
2023/06/06 12:24:18;;;;;;;4.75;2.20;;;51.60;29.90;;;;;;5073721;28;20231;-84
2023/06/06 12:27:11;;;;;;;4.25;1.77;;;52.90;28.10;;;;;;5087606;28;20219;-84
2023/06/06 12:30:00;;;;;;;3.25;2.20;;;51.90;28.00;;;;;;5070240;28;20223;-83
2023/06/06 12:32:54;;;;;;;7.65;2.35;;;51.00;28.00;;;;;;5059232;28;20223;-84
2023/06/06 12:35:45;;;;;;;4.68;2.33;;;51.00;28.30;;;;;;5088616;28;20984;-85
2023/06/06 12:38:33;;;;;;;5.22;2.15;;;50.40;28.50;;;;;;5070379;28;20214;-85
2023/06/06 12:41:22;;;;;;;4.60;2.30;;;50.10;28.60;;;;;;5052415;28;20216;-85
2023/06/06 12:44:16;;;;;;;5.18;2.15;;;46.90;28.10;;;;;;5074534;28;20234;-85
2023/06/06 12:47:05;;;;;;;6.53;2.17;;;40.80;30.60;;;;;;5076922;28;20231;-84
2023/06/06 12:49:54;;;;;;;6.93;2.45;;;36.90;33.80;;;;;;5084345;28;20226;-83
2023/06/06 12:52:43;;;;;;;6.05;2.38;;;36.00;36.70;;;;;;5066688;28;20230;-83
2023/06/06 12:55:32;;;;;;;8.32;2.28;;;35.10;37.10;;;;;;5056890;28;20383;-83
2023/06/06 12:58:21;;;;;;;2.70;2.10;;;33.10;37.50;;;;;;5060100;28;20224;-86
2023/06/06 13:01:11;;;;;;;5.63;2.10;;;32.50;38.90;;;;;;5056380;28;20216;-83
2023/06/06 13:04:00;;;;;;;5.20;2.70;;;31.90;39.90;;;;;;5051808;28;20235;-81
2023/06/06 13:06:51;;;;;;;3.90;2.50;;;31.70;40.90;;;;;;5065846;28;20230;-82
2023/06/06 13:09:40;;;;;;;4.88;2.53;;;31.20;42.30;;;;;;5052384;28;20266;-83
2023/06/06 13:12:31;;;;;;;3.85;2.35;;;31.20;41.70;;;;;;5075615;28;20610;-82
2023/06/06 13:15:20;;;;;;;4.00;2.35;;;30.90;42.00;;;;;;5073369;28;20366;-83
2023/06/06 13:18:10;;;;;;;4.28;2.42;;;30.10;42.00;;;;;;5082194;28;20694;-83
2023/06/06 13:21:01;;;;;;;6.88;2.60;;;30.20;43.80;;;;;;5083846;28;20327;-82
2023/06/06 13:23:50;;;;;;;5.47;2.63;;;30.20;43.20;;;;;;5072184;28;20215;-83
2023/06/06 13:26:43;;;;;;;7.00;2.33;;;30.20;43.20;;;;;;5043462;28;20285;-83
2023/06/06 13:29:32;;;;;;;6.85;2.88;;;29.80;42.70;;;;;;5039566;28;20216;-83
2023/06/06 13:32:22;;;;;;;4.82;2.58;;;29.60;43.50;;;;;;5072064;28;20349;-78
2023/06/06 13:35:12;;;;;;;4.65;2.65;;;29.50;43.40;;;;;;5057139;28;20211;-82
2023/06/06 13:38:01;;;;;;;8.48;3.10;;;29.40;43.20;;;;;;5069935;28;20641;-82
2023/06/06 13:40:50;;;;;;;6.90;3.13;;;29.30;44.10;;;;;;5076865;28;20262;-82
2023/06/06 13:43:39;;;;;;;8.18;2.90;;;29.20;44.10;;;;;;5075500;28;20222;-83
2023/06/06 13:46:27;;;;;;;7.18;2.92;;;29.30;44.30;;;;;;5046267;28;20338;-83
2023/06/06 13:49:17;;;;;;;9.38;2.92;;;29.10;45.10;;;;;;5054442;28;20294;-83
2023/06/06 13:52:07;;;;;;;4.20;2.80;;;29.30;44.60;;;;;;5072819;28;20769;-83
2023/06/06 13:54:56;;;;;;;4.38;2.60;;;29.30;44.30;;;;;;5082985;28;20215;-83
2023/06/06 13:57:51;;;;;;;5.50;3.10;;;29.20;44.10;;;;;;5055293;28;20298;-83
2023/06/06 14:00:40;;;;;;;4.13;2.75;;;29.10;46.30;;;;;;5062029;28;20216;-83
2023/06/06 14:03:29;;;;;;;3.47;2.85;;;28.60;45.20;;;;;;5038882;28;20225;-82
2023/06/06 14:06:22;;;;;;;5.50;3.00;;;28.80;45.70;;;;;;5074003;28;20239;-80
2023/06/06 14:09:14;;;;;;;5.03;2.72;;;28.80;45.40;;;;;;5080014;28;20451;-82
2023/06/06 14:12:04;;;;;;;5.78;3.22;;;28.80;46.00;;;;;;5085371;28;20305;-82
2023/06/06 14:14:53;;;;;;;6.53;3.08;;;29.00;47.10;;;;;;5072587;28;20502;-82
2023/06/06 14:17:41;;;;;;;4.22;3.10;;;29.10;46.20;;;;;;5081721;28;20220;-81
2023/06/06 14:20:36;;;;;;;5.03;2.47;;;29.00;46.30;;;;;;5085284;28;20685;-83
2023/06/06 14:23:25;;;;;;;4.40;3.30;;;29.00;46.10;;;;;;5084339;28;20215;-83
2023/06/06 14:26:20;;;;;;;5.05;3.00;;;28.90;47.70;;;;;;5079395;28;20275;-83
2023/06/06 14:29:08;;;;;;;5.47;2.95;;;28.80;46.00;;;;;;5076277;28;20297;-83
2023/06/06 14:31:57;;;;;;;2.97;2.67;;;28.30;45.20;;;;;;5046533;28;20225;-83
2023/06/06 14:34:48;;;;;;;6.50;2.80;;;28.40;46.30;;;;;;5052884;28;21055;-82
2023/06/06 14:37:37;;;;;;;3.35;2.75;;;28.60;45.60;;;;;;5058881;28;20234;-83
2023/06/06 14:40:25;;;;;;;5.38;2.88;;;28.60;45.50;;;;;;5075158;28;20373;-83
2023/06/06 14:43:16;;;;;;;5.43;2.70;;;28.60;45.60;;;;;;5077586;28;20302;-82
2023/06/06 14:46:05;;;;;;;5.25;2.92;;;28.50;45.10;;;;;;5083151;28;20857;-83